Time;durP1;ratioP1;P1;durP2;ratioP2;P2;SDS_P1;SDS_P2;PMS_P1;PMS_P2;Temp;Humidity;BMP_temperature;BMP_pressure;BME280_temperature;BME280_humidity;BME280_pressure;Samples;Min_cycle;Max_cycle;Signal;HPM_P1;HPM_P2
2024/02/02 00:02:02;;;;;;;59.53;26.88;;;;;;;2.50;100.00;97961.97;5067493;28;20035;-75
2024/02/02 00:04:28;;;;;;;69.82;29.05;;;;;;;2.33;100.00;97956.22;5075972;28;20557;-75
2024/02/02 00:06:54;;;;;;;71.10;29.17;;;;;;;2.28;100.00;97954.59;5074249;28;20468;-76
2024/02/02 00:09:19;;;;;;;78.80;34.58;;;;;;;2.05;100.00;97949.81;5074300;28;20036;-76
2024/02/02 00:11:46;;;;;;;85.65;36.05;;;;;;;2.08;100.00;97950.63;5061362;28;20036;-77
2024/02/02 00:14:12;;;;;;;108.50;46.78;;;;;;;2.12;100.00;97952.28;5056834;28;20447;-76
2024/02/02 00:16:37;;;;;;;112.70;46.05;;;;;;;2.13;100.00;97961.06;5062469;28;20147;-76
2024/02/02 00:19:04;;;;;;;105.50;44.88;;;;;;;2.22;100.00;97952.94;5072202;28;20107;-76
2024/02/02 00:21:29;;;;;;;109.97;50.13;;;;;;;2.10;100.00;97950.59;5068683;28;20047;-75
2024/02/02 00:23:55;;;;;;;119.18;47.45;;;;;;;2.16;100.00;97943.41;5067213;28;20460;-76
2024/02/02 00:26:20;;;;;;;123.72;51.90;;;;;;;2.27;100.00;97960.78;5093462;28;20086;-76
2024/02/02 00:28:46;;;;;;;121.90;50.92;;;;;;;2.21;100.00;97955.63;5086632;28;20024;-77
2024/02/02 00:31:12;;;;;;;92.20;41.50;;;;;;;1.92;100.00;97959.78;5080879;28;20024;-76
2024/02/02 00:33:37;;;;;;;97.40;40.90;;;;;;;1.90;100.00;97937.84;5073973;28;20032;-76
2024/02/02 00:36:04;;;;;;;107.82;45.67;;;;;;;2.02;100.00;97960.44;5084366;28;20023;-77
2024/02/02 00:38:29;;;;;;;97.68;42.22;;;;;;;1.97;100.00;97964.97;5076558;28;20019;-76
2024/02/02 00:40:55;;;;;;;90.10;39.00;;;;;;;1.88;100.00;97950.19;5075084;28;20027;-76
2024/02/02 00:43:21;;;;;;;82.60;35.42;;;;;;;2.03;100.00;97967.47;5066503;28;20139;-76
2024/02/02 00:45:47;;;;;;;96.47;40.55;;;;;;;2.30;100.00;97943.09;5076706;28;20028;-77
2024/02/02 00:48:12;;;;;;;96.22;39.15;;;;;;;2.29;100.00;97946.63;5064418;28;20024;-76
2024/02/02 00:50:38;;;;;;;82.53;36.95;;;;;;;2.27;100.00;97947.59;5081343;28;20020;-77
2024/02/02 00:53:04;;;;;;;84.07;37.35;;;;;;;2.18;100.00;97951.31;5054730;28;20020;-77
2024/02/02 00:55:30;;;;;;;93.55;41.10;;;;;;;2.23;100.00;97948.53;5073952;28;20493;-76
2024/02/02 00:57:55;;;;;;;107.35;42.00;;;;;;;2.23;100.00;97948.53;5090462;28;20031;-76
2024/02/02 01:00:21;;;;;;;94.38;41.55;;;;;;;2.26;100.00;97949.34;5073288;28;20028;-76
2024/02/02 01:02:47;;;;;;;100.47;41.08;;;;;;;2.42;100.00;97963.94;5061651;28;20036;-77
2024/02/02 01:05:14;;;;;;;91.63;37.17;;;;;;;2.38;100.00;97946.44;5063868;28;20028;-77
2024/02/02 01:07:39;;;;;;;76.78;34.60;;;;;;;2.35;100.00;97953.53;5066783;28;20112;-77
2024/02/02 01:10:06;;;;;;;72.20;33.35;;;;;;;2.43;100.00;97947.16;5054572;28;20119;-77
2024/02/02 01:12:33;;;;;;;80.95;32.38;;;;;;;2.39;100.00;97942.03;5085728;28;20027;-76
2024/02/02 01:14:58;;;;;;;88.85;35.72;;;;;;;2.30;100.00;97927.28;5064296;28;20031;-77
2024/02/02 01:17:24;;;;;;;84.53;34.92;;;;;;;2.43;100.00;97936.63;5062407;28;20020;-75
2024/02/02 01:19:50;;;;;;;81.88;34.90;;;;;;;2.45;100.00;97929.56;5057449;28;20138;-76
2024/02/02 01:22:15;;;;;;;80.35;33.17;;;;;;;2.47;100.00;97935.66;5058957;28;20039;-77
2024/02/02 01:24:41;;;;;;;76.00;32.20;;;;;;;2.34;100.00;97930.72;5064315;28;20062;-76
2024/02/02 01:27:07;;;;;;;64.70;30.23;;;;;;;2.46;100.00;97948.91;5068322;28;20028;-76
2024/02/02 01:29:33;;;;;;;71.60;30.45;;;;;;;2.39;100.00;97939.38;5090951;28;20030;-76
2024/02/02 01:31:59;;;;;;;63.65;28.42;;;;;;;2.39;100.00;97931.47;5063044;28;20085;-76
2024/02/02 01:34:25;;;;;;;71.63;30.15;;;;;;;2.36;100.00;97921.84;5062741;28;20032;-76
2024/02/02 01:36:52;;;;;;;84.55;33.95;;;;;;;2.52;100.00;97941.66;5054472;28;20043;-76
2024/02/02 01:39:17;;;;;;;89.38;38.05;;;;;;;2.43;100.00;97941.91;5076139;28;20031;-76
2024/02/02 01:41:45;;;;;;;95.07;39.38;;;;;;;2.32;100.00;97921.94;5055574;28;20039;-76
2024/02/02 01:44:11;;;;;;;99.32;39.33;;;;;;;2.37;100.00;97925.34;5062789;28;20104;-75
2024/02/02 01:46:37;;;;;;;105.78;43.42;;;;;;;2.57;100.00;97923.97;5062705;28;20403;-75
2024/02/02 01:49:02;;;;;;;106.35;45.08;;;;;;;2.54;100.00;97924.03;5069772;28;20115;-76
2024/02/02 01:51:28;;;;;;;109.90;45.92;;;;;;;2.63;100.00;97925.59;5064829;28;20553;-75
2024/02/02 01:53:54;;;;;;;124.22;49.33;;;;;;;2.56;100.00;97921.34;5053880;28;20035;-75
2024/02/02 01:56:19;;;;;;;121.05;47.15;;;;;;;2.53;100.00;97917.03;5070970;28;20051;-76
2024/02/02 01:58:46;;;;;;;111.93;45.65;;;;;;;2.63;100.00;97929.09;5069383;28;20043;-76
2024/02/02 02:01:12;;;;;;;114.53;48.83;;;;;;;2.65;100.00;97921.13;5056203;28;20036;-76
2024/02/02 02:03:38;;;;;;;110.55;48.33;;;;;;;2.67;100.00;97929.91;5061979;28;20040;-77
2024/02/02 02:06:03;;;;;;;104.38;43.50;;;;;;;2.71;100.00;97929.75;5081382;28;20507;-78
2024/02/02 02:08:29;;;;;;;103.65;43.53;;;;;;;2.70;100.00;97914.84;5081659;28;20504;-78
2024/02/02 02:10:55;;;;;;;105.53;39.95;;;;;;;2.84;100.00;97924.19;5061475;28;20044;-78
2024/02/02 02:13:21;;;;;;;102.35;42.20;;;;;;;2.82;100.00;97918.94;5052911;28;20030;-78
2024/02/02 02:15:46;;;;;;;86.22;36.92;;;;;;;2.81;100.00;97918.97;5065963;28;20025;-78
2024/02/02 02:18:12;;;;;;;80.47;30.77;;;;;;;2.82;100.00;97928.63;5060175;28;20025;-78
2024/02/02 02:20:39;;;;;;;70.75;30.00;;;;;;;2.80;100.00;97941.03;5069893;28;20493;-78
2024/02/02 02:23:05;;;;;;;71.95;30.95;;;;;;;2.69;100.00;97913.09;5052907;28;20024;-78
2024/02/02 02:25:30;;;;;;;71.93;32.30;;;;;;;2.81;100.00;97926.91;5059533;28;20048;-77
2024/02/02 02:27:56;;;;;;;72.47;31.80;;;;;;;2.84;100.00;97916.25;5070265;28;20479;-78
2024/02/02 02:30:22;;;;;;;62.35;27.77;;;;;;;2.85;100.00;97910.06;5052826;28;20428;-78
2024/02/02 02:32:48;;;;;;;62.13;28.27;;;;;;;2.92;100.00;97924.88;5086311;28;20071;-78
2024/02/02 02:35:13;;;;;;;62.97;29.58;;;;;;;2.88;100.00;97923.19;5065398;28;20106;-77
2024/02/02 02:37:39;;;;;;;66.45;29.17;;;;;;;2.88;100.00;97905.59;5056695;28;20574;-78
2024/02/02 02:40:05;;;;;;;69.25;30.75;;;;;;;2.92;100.00;97920.47;5071907;28;20068;-78
2024/02/02 02:42:31;;;;;;;81.45;31.85;;;;;;;2.91;100.00;97902.88;5064472;28;20035;-77
2024/02/02 02:44:57;;;;;;;66.63;29.52;;;;;;;2.86;100.00;97909.19;5054041;28;20070;-78
2024/02/02 02:47:23;;;;;;;74.53;32.35;;;;;;;2.77;100.00;97904.13;5082900;28;20040;-77
2024/02/02 02:49:48;;;;;;;78.28;34.13;;;;;;;2.84;100.00;97932.09;5064007;28;20071;-78
2024/02/02 02:52:14;;;;;;;85.93;36.75;;;;;;;2.74;100.00;97927.06;5085515;28;20020;-77
2024/02/02 02:54:40;;;;;;;80.45;35.72;;;;;;;2.64;100.00;97936.13;5085042;28;20032;-77
2024/02/02 02:57:05;;;;;;;92.72;35.83;;;;;;;2.52;100.00;97936.41;5080576;28;20039;-77
2024/02/02 02:59:32;;;;;;;75.97;32.63;;;;;;;2.52;100.00;97930.28;5066629;28;20072;-78
2024/02/02 03:01:58;;;;;;;64.72;29.38;;;;;;;2.55;100.00;97932.84;5078670;28;20029;-78
2024/02/02 03:04:24;;;;;;;65.85;27.92;;;;;;;2.51;100.00;97932.03;5067501;28;20032;-78
2024/02/02 03:06:50;;;;;;;73.43;32.90;;;;;;;2.44;100.00;97940.13;5077027;28;20095;-78
2024/02/02 03:09:16;;;;;;;72.57;31.85;;;;;;;2.42;100.00;97944.59;5082213;28;20024;-78
2024/02/02 03:11:41;;;;;;;68.65;29.20;;;;;;;2.40;100.00;97928.75;5064122;28;20093;-76
2024/02/02 03:14:07;;;;;;;62.45;28.25;;;;;;;2.55;100.00;97936.31;5061471;28;20039;-77
2024/02/02 03:16:33;;;;;;;65.07;27.30;;;;;;;2.38;100.00;97920.03;5052403;28;20020;-77
2024/02/02 03:18:58;;;;;;;65.15;28.83;;;;;;;2.50;100.00;97930.28;5068647;28;20046;-78
2024/02/02 03:21:24;;;;;;;58.85;29.27;;;;;;;2.56;100.00;97937.19;5065546;28;20032;-77
2024/02/02 03:23:50;;;;;;;65.38;28.42;;;;;;;2.55;100.00;97946.88;5059905;28;20035;-78
2024/02/02 03:26:16;;;;;;;70.80;31.42;;;;;;;2.54;100.00;97924.03;5063841;28;20044;-76
2024/02/02 03:28:41;;;;;;;68.70;29.60;;;;;;;2.52;100.00;97933.75;5064242;28;20074;-77
2024/02/02 03:31:07;;;;;;;76.88;30.45;;;;;;;2.49;100.00;97925.91;5055703;28;20044;-78
2024/02/02 03:33:33;;;;;;;65.90;29.17;;;;;;;2.71;100.00;97928.91;5054672;28;20028;-77
2024/02/02 03:35:58;;;;;;;65.63;30.85;;;;;;;2.86;100.00;97935.59;5052834;28;20074;-78
2024/02/02 03:38:24;;;;;;;78.13;33.70;;;;;;;2.84;100.00;97926.81;5080719;28;20099;-78
2024/02/02 03:40:50;;;;;;;94.43;37.53;;;;;;;2.88;100.00;97923.19;5055654;28;20451;-78
2024/02/02 03:43:16;;;;;;;95.05;38.53;;;;;;;2.97;100.00;97920.31;5055569;28;20036;-78
2024/02/02 03:45:41;;;;;;;90.97;38.55;;;;;;;3.15;100.00;97922.47;5070185;28;20048;-78
2024/02/02 03:48:07;;;;;;;87.07;37.78;;;;;;;3.18;100.00;97938.25;5075342;28;20032;-77
2024/02/02 03:50:33;;;;;;;87.38;38.60;;;;;;;2.99;100.00;97942.28;5070739;28;20040;-78
2024/02/02 03:53:00;;;;;;;89.63;39.42;;;;;;;2.88;100.00;97949.63;5080646;28;20057;-78
2024/02/02 03:55:26;;;;;;;95.78;40.75;;;;;;;2.96;100.00;97950.28;5063707;28;20476;-78
2024/02/02 03:57:52;;;;;;;86.97;39.47;;;;;;;2.90;100.00;97955.72;5063593;28;20027;-78
2024/02/02 04:00:18;;;;;;;86.35;37.75;;;;;;;2.98;100.00;97975.78;5065871;28;20119;-79
2024/02/02 04:02:45;;;;;;;90.88;38.33;;;;;;;2.85;100.00;97966.41;5092135;28;20023;-78
2024/02/02 04:05:11;;;;;;;88.82;37.53;;;;;;;2.87;100.00;97979.56;5083811;28;20454;-78
2024/02/02 04:07:37;;;;;;;89.38;38.50;;;;;;;2.81;100.00;97963.88;5070260;28;20024;-78
2024/02/02 04:10:04;;;;;;;96.45;40.38;;;;;;;2.74;100.00;97969.31;5054970;28;20074;-77
2024/02/02 04:12:29;;;;;;;107.63;40.83;;;;;;;2.81;100.00;97991.16;5063603;28;20032;-76
2024/02/02 04:14:55;;;;;;;99.88;40.72;;;;;;;2.70;100.00;97962.38;5055077;28;20044;-78
2024/02/02 04:17:21;;;;;;;95.53;39.20;;;;;;;2.72;100.00;97981.69;5063274;28;20107;-78
2024/02/02 04:19:47;;;;;;;73.93;33.85;;;;;;;2.70;100.00;97956.22;5060791;28;20478;-78
2024/02/02 04:22:16;;;;;;;75.95;32.90;;;;;;;2.69;100.00;97962.41;5065736;28;20495;-78
2024/02/02 04:24:43;;;;;;;73.47;29.75;;;;;;;2.88;100.00;97976.03;5068807;28;20372;-78
2024/02/02 04:27:09;;;;;;;59.88;28.92;;;;;;;2.89;100.00;97967.22;5057750;28;20035;-78
2024/02/02 04:29:34;;;;;;;65.15;29.33;;;;;;;2.84;100.00;97964.66;5063154;28;20025;-76
2024/02/02 04:32:00;;;;;;;62.78;29.25;;;;;;;2.93;100.00;97963.56;5078805;28;20059;-77
2024/02/02 04:34:26;;;;;;;64.68;28.40;;;;;;;2.88;100.00;97954.91;5063223;28;20052;-78
2024/02/02 04:36:51;;;;;;;70.78;30.70;;;;;;;2.83;100.00;97978.78;5077511;28;20113;-78
2024/02/02 04:39:17;;;;;;;71.50;31.92;;;;;;;2.83;100.00;97978.78;5074613;28;20179;-78
2024/02/02 04:41:43;;;;;;;71.03;30.90;;;;;;;2.94;100.00;97981.16;5066314;28;20028;-78
2024/02/02 04:44:08;;;;;;;74.60;32.08;;;;;;;3.03;100.00;97971.22;5075040;28;20226;-78
2024/02/02 04:46:34;;;;;;;73.07;32.10;;;;;;;3.08;100.00;97977.25;5054565;28;20024;-79
2024/02/02 04:49:00;;;;;;;80.13;30.88;;;;;;;3.25;100.00;97960.97;5054465;28;20028;-79
2024/02/02 04:51:25;;;;;;;73.97;31.05;;;;;;;3.20;100.00;97947.00;5055905;28;20392;-78
2024/02/02 04:53:51;;;;;;;69.60;29.77;;;;;;;3.34;100.00;97952.81;5082877;28;20032;-78
2024/02/02 04:56:17;;;;;;;71.43;32.42;;;;;;;3.36;100.00;97965.97;5082071;28;20128;-78
2024/02/02 04:58:42;;;;;;;72.97;31.90;;;;;;;3.35;100.00;97953.66;5054419;28;20024;-78
2024/02/02 05:01:08;;;;;;;78.20;32.35;;;;;;;3.38;100.00;97965.03;5062413;28;20040;-78
2024/02/02 05:03:34;;;;;;;78.53;32.53;;;;;;;3.39;100.00;97969.41;5064878;28;20036;-76
2024/02/02 05:05:59;;;;;;;81.25;34.72;;;;;;;3.28;100.00;97960.91;5067633;28;20025;-77
2024/02/02 05:08:25;;;;;;;84.00;36.53;;;;;;;3.23;100.00;97966.28;5061998;28;20093;-77
2024/02/02 05:10:51;;;;;;;86.40;37.22;;;;;;;3.27;100.00;97981.16;5058997;28;20028;-77
2024/02/02 05:13:16;;;;;;;74.20;33.17;;;;;;;3.28;100.00;97982.03;5057203;28;20098;-80
2024/02/02 05:15:42;;;;;;;67.43;30.88;;;;;;;3.24;100.00;98001.53;5065877;28;20485;-78
2024/02/02 05:18:08;;;;;;;59.53;27.90;;;;;;;3.07;100.00;98001.97;5058526;28;20454;-76
2024/02/02 05:20:33;;;;;;;63.70;28.25;;;;;;;3.21;100.00;98006.88;5064145;28;20514;-78
2024/02/02 05:22:59;;;;;;;66.57;28.15;;;;;;;3.14;100.00;97977.09;5073611;28;20062;-77
2024/02/02 05:25:25;;;;;;;69.50;28.33;;;;;;;3.37;100.00;98012.66;5072462;28;20040;-78
2024/02/02 05:27:51;;;;;;;70.88;29.52;;;;;;;3.31;100.00;98007.53;5058023;28;20024;-77
2024/02/02 05:30:16;;;;;;;101.32;45.25;;;;;;;3.37;100.00;98013.53;5057196;28;20023;-74
2024/02/02 05:32:42;;;;;;;67.85;31.05;;;;;;;3.40;100.00;98026.66;5081088;28;20479;-74
2024/02/02 05:35:08;;;;;;;70.45;31.13;;;;;;;3.44;100.00;98036.25;5073289;28;20020;-74
2024/02/02 05:37:34;;;;;;;75.25;31.75;;;;;;;3.46;100.00;98038.84;5072822;28;20115;-78
2024/02/02 05:39:59;;;;;;;78.82;35.42;;;;;;;3.34;100.00;98045.31;5090276;28;20020;-81
2024/02/02 05:42:25;;;;;;;145.52;59.50;;;;;;;3.54;100.00;98052.72;5090401;28;20198;-78
2024/02/02 05:44:51;;;;;;;205.10;85.85;;;;;;;3.72;100.00;98031.94;5068471;28;20025;-77
2024/02/02 05:47:16;;;;;;;111.78;49.67;;;;;;;3.82;100.00;98041.38;5061743;28;20028;-80
2024/02/02 05:49:42;;;;;;;104.75;41.53;;;;;;;3.73;100.00;98036.34;5055754;28;20120;-77
2024/02/02 05:52:09;;;;;;;176.50;79.90;;;;;;;3.74;100.00;98043.38;5090001;28;20186;-79
2024/02/02 05:54:35;;;;;;;165.52;62.25;;;;;;;3.76;100.00;98054.78;5055198;28;20068;-79
2024/02/02 05:57:01;;;;;;;126.78;54.30;;;;;;;3.69;100.00;98062.94;5053018;28;20024;-80
2024/02/02 05:59:27;;;;;;;124.07;49.13;;;;;;;3.59;100.00;98058.78;5061143;28;20111;-78
2024/02/02 06:01:54;;;;;;;113.40;47.25;;;;;;;3.60;100.00;98076.41;5064375;28;20127;-79
2024/02/02 06:04:20;;;;;;;117.70;49.17;;;;;;;3.92;100.00;98075.53;5064252;28;20111;-80
2024/02/02 06:06:45;;;;;;;121.50;54.88;;;;;;;3.74;100.00;98067.19;5072448;28;20115;-80
2024/02/02 06:09:11;;;;;;;124.22;50.80;;;;;;;3.83;100.00;98074.88;5058304;28;20063;-79
2024/02/02 06:11:40;;;;;;;99.57;43.22;;;;;;;3.98;100.00;98075.34;5068853;28;20110;-79
2024/02/02 06:14:05;;;;;;;107.40;45.33;;;;;;;3.89;100.00;98070.31;5057420;28;20028;-79
2024/02/02 06:16:32;;;;;;;96.95;42.10;;;;;;;3.88;100.00;98082.69;5055720;28;20020;-78
2024/02/02 06:18:58;;;;;;;96.18;40.58;;;;;;;3.79;100.00;98081.16;5072247;28;20032;-79
2024/02/02 06:21:23;;;;;;;85.82;39.35;;;;;;;3.92;100.00;98091.41;5081953;28;20506;-79
2024/02/02 06:23:49;;;;;;;95.05;42.75;;;;;;;4.13;100.00;98096.97;5052338;28;20040;-80
2024/02/02 06:26:14;;;;;;;96.95;42.00;;;;;;;4.27;100.00;98100.13;5066544;28;20056;-78
2024/02/02 06:28:40;;;;;;;114.07;45.35;;;;;;;4.43;100.00;98097.88;5054512;28;20037;-79
2024/02/02 06:31:06;;;;;;;108.80;44.92;;;;;;;4.48;100.00;98106.59;5052409;28;20070;-78
2024/02/02 06:33:32;;;;;;;102.97;43.42;;;;;;;4.58;100.00;98100.13;5056916;28;20044;-82
2024/02/02 06:35:58;;;;;;;128.95;51.92;;;;;;;4.76;100.00;98091.63;5079022;28;20051;-82
2024/02/02 06:38:24;;;;;;;112.97;48.78;;;;;;;4.77;100.00;98108.34;5066064;28;20040;-84
2024/02/02 06:40:49;;;;;;;112.65;49.20;;;;;;;4.90;100.00;98107.09;5063279;28;20047;-83
2024/02/02 06:43:15;;;;;;;226.50;110.50;;;;;;;4.97;100.00;98115.72;5065904;28;20413;-75
2024/02/02 06:45:41;;;;;;;133.27;56.17;;;;;;;4.93;100.00;98107.00;5069669;28;20468;-75
2024/02/02 06:48:10;;;;;;;122.53;51.90;;;;;;;4.97;100.00;98124.53;5086116;28;20547;-74
2024/02/02 06:50:56;;;;;;;119.25;52.10;;;;;;;5.00;100.00;98126.22;5069608;28;20055;-76
2024/02/02 06:53:27;;;;;;;303.58;132.18;;;;;;;5.14;100.00;98139.91;5066998;28;20122;-82
2024/02/02 06:55:53;;;;;;;159.18;67.88;;;;;;;5.23;100.00;98142.31;5049815;28;20032;-79
2024/02/02 06:58:41;;;;;;;121.07;55.78;;;;;;;5.34;100.00;98135.75;5071546;28;20032;-80
2024/02/02 07:01:08;;;;;;;151.55;60.25;;;;;;;5.40;100.00;98124.06;5065213;28;20514;-79
2024/02/02 07:03:34;;;;;;;131.40;57.75;;;;;;;5.53;100.00;98141.34;5074889;28;20036;-79
2024/02/02 07:06:02;;;;;;;131.60;56.78;;;;;;;5.59;100.00;98142.91;5084230;28;20429;-79
2024/02/02 07:08:31;;;;;;;126.40;54.67;;;;;;;5.61;100.00;98155.22;5053558;28;20137;-79
2024/02/02 07:11:13;;;;;;;101.57;46.95;;;;;;;5.62;100.00;98154.28;5053492;28;20035;-79
2024/02/02 07:13:53;;;;;;;102.80;48.53;;;;;;;5.65;100.00;98153.31;5070158;28;20024;-79
2024/02/02 07:16:27;;;;;;;107.25;49.40;;;;;;;5.85;100.00;98162.38;5055368;28;20177;-79
2024/02/02 07:18:53;;;;;;;106.45;51.20;;;;;;;5.99;100.00;98157.50;5089236;28;20357;-80
2024/02/02 07:21:18;;;;;;;94.00;44.85;;;;;;;6.15;100.00;98146.34;5082618;28;20039;-78
2024/02/02 07:23:44;;;;;;;98.72;45.40;;;;;;;6.25;100.00;98147.75;5091335;28;20051;-78
2024/02/02 07:26:31;;;;;;;95.95;46.22;;;;;;;6.49;100.00;98157.53;5061548;28;20090;-79
2024/02/02 07:28:57;;;;;;;157.18;65.15;;;;;;;6.49;100.00;98144.25;5064621;28;20056;-78
2024/02/02 07:31:38;;;;;;;177.30;73.15;;;;;;;6.61;100.00;98153.53;5087275;28;20085;-78
2024/02/02 07:34:16;;;;;;;139.10;63.72;;;;;;;6.76;100.00;98159.16;5081373;28;20024;-81
2024/02/02 07:36:41;;;;;;;145.23;59.42;;;;;;;6.76;100.00;98151.19;5074510;28;20016;-79
2024/02/02 07:39:24;;;;;;;161.52;70.07;;;;;;;6.81;100.00;98154.53;5052457;28;20031;-78
2024/02/02 07:41:49;;;;;;;147.68;61.22;;;;;;;6.88;100.00;98150.75;5061010;28;20059;-77
2024/02/02 07:44:15;;;;;;;140.20;62.30;;;;;;;6.79;100.00;98145.78;5078713;28;20052;-78
2024/02/02 07:46:40;;;;;;;161.82;72.80;;;;;;;6.81;100.00;98143.91;5085266;28;20408;-78
2024/02/02 07:49:06;;;;;;;137.93;62.45;;;;;;;6.89;100.00;98149.78;5090668;28;20032;-78
2024/02/02 07:51:32;;;;;;;140.35;59.28;;;;;;;7.06;100.00;98154.47;5089631;28;20024;-78
2024/02/02 07:53:57;;;;;;;123.95;59.42;;;;;;;6.98;100.00;98153.91;5055520;28;20056;-79
2024/02/02 07:56:24;;;;;;;102.45;52.55;;;;;;;6.99;100.00;98151.19;5080909;28;20063;-78
2024/02/02 07:58:50;;;;;;;105.18;49.00;;;;;;;7.08;100.00;98150.84;5072513;28;20035;-79
2024/02/02 08:01:15;;;;;;;114.07;55.45;;;;;;;7.09;100.00;98149.03;5072148;28;20028;-81
2024/02/02 08:03:41;;;;;;;111.72;53.13;;;;;;;6.99;100.00;98145.88;5090567;28;20150;-77
2024/02/02 08:06:10;;;;;;;110.43;51.35;;;;;;;6.98;100.00;98157.41;5089353;28;20028;-80
2024/02/02 08:08:38;;;;;;;128.88;57.88;;;;;;;7.01;100.00;98146.66;5085219;28;20537;-81
2024/02/02 08:11:04;;;;;;;173.48;76.15;;;;;;;7.13;100.00;98158.66;5063580;28;20028;-81
2024/02/02 08:13:30;;;;;;;131.93;60.28;;;;;;;7.19;100.00;98160.19;5053300;28;20552;-81
2024/02/02 08:15:57;;;;;;;118.68;54.67;;;;;;;7.22;100.00;98170.72;5072229;28;20088;-79
2024/02/02 08:18:22;;;;;;;195.98;99.95;;;;;;;7.31;100.00;98171.25;5086513;28;20023;-81
2024/02/02 08:20:48;;;;;;;142.07;66.10;;;;;;;7.36;100.00;98163.06;5067362;28;20044;-80
2024/02/02 08:23:17;;;;;;;187.25;83.35;;;;;;;7.55;100.00;98167.59;5089777;28;20604;-80
2024/02/02 08:25:42;;;;;;;123.13;53.45;;;;;;;7.54;100.00;98160.53;5088940;28;20041;-81
2024/02/02 08:28:08;;;;;;;133.05;61.60;;;;;;;7.72;100.00;98155.41;5072946;28;20032;-80
2024/02/02 08:30:34;;;;;;;148.02;66.97;;;;;;;7.75;100.00;98152.63;5071772;28;20092;-81
2024/02/02 08:33:00;;;;;;;156.70;63.60;;;;;;;7.91;100.00;98162.56;5069004;28;20036;-80
2024/02/02 08:35:52;;;;;;;134.77;61.70;;;;;;;8.00;100.00;98156.84;5060814;28;20131;-82
2024/02/02 08:38:18;;;;;;;115.78;57.60;;;;;;;8.03;100.00;98150.53;5078979;28;20060;-81
2024/02/02 08:40:50;;;;;;;125.75;57.80;;;;;;;8.28;100.00;98145.94;5083961;28;20040;-81
2024/02/02 08:43:19;;;;;;;139.65;64.10;;;;;;;8.50;100.00;98145.84;5072777;28;20651;-80
2024/02/02 08:46:06;;;;;;;137.95;59.63;;;;;;;8.56;100.00;98140.25;5089457;28;20063;-82
2024/02/02 08:48:39;;;;;;;134.15;61.10;;;;;;;8.73;100.00;98142.19;5053182;28;20040;-85
2024/02/02 08:51:24;;;;;;;121.50;56.88;;;;;;;8.86;100.00;98125.53;5075694;28;20049;-84
2024/02/02 08:54:07;;;;;;;76.15;36.10;;;;;;;8.62;100.00;98126.66;5087876;28;20400;-82
2024/02/02 08:56:33;;;;;;;76.97;37.72;;;;;;;8.40;100.00;98131.22;5069030;28;20028;-82
2024/02/02 08:59:10;;;;;;;40.60;20.80;;;;;;;8.50;99.59;98135.19;5080187;28;20101;-81
2024/02/02 09:01:40;;;;;;;42.47;18.45;;;;;;;8.55;97.82;98118.06;5080052;28;21956;-80
2024/02/02 09:04:39;;;;;;;34.63;18.33;;;;;;;8.76;96.48;98121.56;5077492;28;20093;-82
2024/02/02 09:07:05;;;;;;;30.83;14.18;;;;;;;8.33;92.78;98132.41;5078824;28;20040;-79
2024/02/02 09:09:31;;;;;;;23.95;11.52;;;;;;;8.18;94.53;98128.59;5075763;28;20024;-81
2024/02/02 09:11:56;;;;;;;28.27;13.38;;;;;;;8.18;96.03;98132.09;5088525;28;20032;-81
2024/02/02 09:14:23;;;;;;;60.75;26.83;;;;;;;8.26;95.62;98125.56;5063930;28;20119;-82
2024/02/02 09:16:52;;;;;;;69.15;32.25;;;;;;;8.32;96.18;98147.53;5085045;28;20045;-82
2024/02/02 09:19:27;;;;;;;30.20;11.50;;;;;;;8.22;95.47;98150.63;5080680;28;20041;-82
2024/02/02 09:21:57;;;;;;;38.45;19.15;;;;;;;8.23;96.89;98155.03;5072133;28;20098;-81
2024/02/02 09:24:42;;;;;;;97.65;46.08;;;;;;;8.28;96.94;98155.72;5080422;28;20020;-79
2024/02/02 09:27:13;;;;;;;40.08;17.15;;;;;;;8.23;96.27;98144.34;5064274;28;20058;-81
2024/02/02 09:29:47;;;;;;;28.80;13.05;;;;;;;8.25;96.44;98139.81;5060812;28;20040;-80
2024/02/02 09:32:17;;;;;;;27.75;12.82;;;;;;;8.11;95.42;98153.75;5065578;28;20033;-82
2024/02/02 09:34:46;;;;;;;25.38;11.18;;;;;;;8.07;95.76;98153.00;5067502;28;20028;-79
2024/02/02 09:37:21;;;;;;;31.70;12.45;;;;;;;8.16;95.72;98157.94;5075109;28;20056;-81
2024/02/02 09:39:56;;;;;;;49.75;22.35;;;;;;;8.15;97.35;98155.38;5083386;28;20123;-83
2024/02/02 09:42:44;;;;;;;28.80;15.13;;;;;;;7.84;97.63;98150.47;5056876;28;20039;-83
2024/02/02 09:45:39;;;;;;;16.50;9.35;;;;;;;7.75;99.27;98161.50;5076068;28;20498;-81
2024/02/02 09:48:29;;;;;;;20.58;11.00;;;;;;;7.86;100.00;98161.91;5085083;28;20259;-82
2024/02/02 09:51:19;;;;;;;32.70;12.27;;;;;;;7.95;99.88;98161.53;5065340;28;20546;-81
2024/02/02 09:54:01;;;;;;;31.58;13.18;;;;;;;8.01;100.00;98168.38;5089095;28;20023;-81
2024/02/02 09:56:42;;;;;;;24.17;12.18;;;;;;;7.83;98.73;98161.16;5078398;28;20400;-80
2024/02/02 09:59:22;;;;;;;23.73;11.45;;;;;;;7.63;100.00;98156.63;5069970;28;20041;-81
2024/02/02 10:01:54;;;;;;;23.02;11.73;;;;;;;7.68;100.00;98170.66;5061336;28;20050;-80
2024/02/02 10:04:42;;;;;;;20.00;11.65;;;;;;;7.58;100.00;98162.16;5070770;28;20029;-81
2024/02/02 10:07:20;;;;;;;22.67;10.30;;;;;;;7.52;100.00;98164.19;5062826;28;20067;-81
2024/02/02 10:10:05;;;;;;;22.52;10.70;;;;;;;7.59;100.00;98160.38;5088791;28;20083;-81
2024/02/02 10:12:34;;;;;;;22.30;9.60;;;;;;;7.66;100.00;98158.31;5074710;28;20411;-81
2024/02/02 10:15:27;;;;;;;23.10;9.32;;;;;;;7.72;99.91;98153.59;5069476;28;20487;-81
2024/02/02 10:18:05;;;;;;;22.98;9.80;;;;;;;7.83;99.47;98161.16;5078831;28;20086;-81
2024/02/02 10:20:35;;;;;;;22.00;9.50;;;;;;;7.82;98.83;98154.09;5085329;28;20023;-81
2024/02/02 10:23:13;;;;;;;24.40;10.18;;;;;;;7.87;97.94;98149.47;5086178;28;20036;-82
2024/02/02 10:26:00;;;;;;;22.17;10.15;;;;;;;7.99;97.44;98155.16;5077685;28;20052;-80
2024/02/02 10:28:56;;;;;;;17.98;10.15;;;;;;;8.02;97.87;98155.00;5082838;28;20082;-82
2024/02/02 10:31:31;;;;;;;27.25;9.35;;;;;;;8.08;97.65;98154.75;5068432;28;20032;-81
2024/02/02 10:34:03;;;;;;;14.68;7.30;;;;;;;7.98;95.91;98153.41;5079691;28;20032;-82
2024/02/02 10:36:28;;;;;;;18.20;9.25;;;;;;;7.99;96.47;98155.16;5079381;28;20028;-82
2024/02/02 10:39:25;;;;;;;17.40;9.60;;;;;;;8.00;97.86;98153.31;5070770;28;20546;-81
2024/02/02 10:41:58;;;;;;;23.35;11.85;;;;;;;8.03;97.82;98151.41;5054877;28;20028;-81
2024/02/02 10:44:36;;;;;;;20.00;10.88;;;;;;;7.96;98.69;98157.06;5079881;28;20035;-82
2024/02/02 10:47:46;;;;;;;29.48;12.27;;;;;;;8.13;98.10;98157.22;5081634;28;20079;-81
2024/02/02 10:50:21;;;;;;;20.58;10.35;;;;;;;8.18;97.09;98150.75;5048740;28;20043;-82
2024/02/02 10:53:24;;;;;;;19.15;9.75;;;;;;;8.28;96.02;98145.06;5031810;28;20512;-81
2024/02/02 10:56:07;;;;;;;36.88;11.50;;;;;;;8.25;97.13;98145.16;5060982;28;20041;-80
2024/02/02 10:59:06;;;;;;;18.60;10.40;;;;;;;8.23;96.61;98144.34;5069460;28;20036;-81
2024/02/02 11:01:42;;;;;;;22.33;8.93;;;;;;;8.14;97.13;98157.16;5079949;28;20036;-81
2024/02/02 11:04:46;;;;;;;14.23;8.02;;;;;;;7.99;98.80;98159.59;5052860;28;20099;-81
2024/02/02 11:07:35;;;;;;;20.95;8.63;;;;;;;8.10;99.26;98163.53;5041604;28;20040;-81
2024/02/02 11:10:03;;;;;;;15.93;8.98;;;;;;;8.25;98.87;98156.69;5080408;28;20036;-81
2024/02/02 11:12:29;;;;;;;27.30;10.70;;;;;;;8.32;99.40;98152.88;5074853;28;20454;-81
2024/02/02 11:15:04;;;;;;;18.75;9.68;;;;;;;8.30;99.12;98149.41;5078359;28;20028;-80
2024/02/02 11:17:42;;;;;;;15.23;8.80;;;;;;;8.33;97.82;98153.75;5074636;28;20031;-80
2024/02/02 11:21:01;;;;;;;22.95;11.18;;;;;;;8.35;98.20;98162.53;5077969;28;20054;-80
2024/02/02 11:23:41;;;;;;;25.02;13.07;;;;;;;8.27;99.08;98157.50;5027855;28;20043;-81
2024/02/02 11:26:16;;;;;;;21.10;10.00;;;;;;;7.96;100.00;98165.94;5072369;28;20054;-81
2024/02/02 11:28:53;;;;;;;17.50;9.02;;;;;;;7.76;100.00;98171.19;5080855;28;20036;-81